createdAt,value
2019-02-23T00:01:06.317Z,8.70
2019-02-23T00:02:10.807Z,8.70
2019-02-23T00:03:15.291Z,8.60
2019-02-23T00:04:19.743Z,8.60
2019-02-23T00:05:24.230Z,8.60
2019-02-23T00:06:30.038Z,8.60
2019-02-23T00:07:35.438Z,8.60
2019-02-23T00:08:40.300Z,8.50
2019-02-23T00:09:44.758Z,8.50
2019-02-23T00:10:49.237Z,8.50
2019-02-23T00:11:53.769Z,8.50
2019-02-23T00:12:59.369Z,8.40
2019-02-23T00:14:03.937Z,8.40
2019-02-23T00:15:08.843Z,8.40
2019-02-23T00:16:13.440Z,8.40
2019-02-23T00:17:17.937Z,8.40
2019-02-23T00:18:22.428Z,8.30
2019-02-23T00:19:26.919Z,8.30
2019-02-23T00:20:32.079Z,8.30
2019-02-23T00:21:36.606Z,8.30
2019-02-23T00:22:42.097Z,8.20
2019-02-23T00:23:46.651Z,8.20
2019-02-23T00:24:51.540Z,8.20
2019-02-23T00:25:56.131Z,8.20
2019-02-23T00:27:00.582Z,8.10
2019-02-23T00:28:05.068Z,8.10
2019-02-23T00:29:09.559Z,8.10
2019-02-23T00:30:14.332Z,8.10
2019-02-23T00:31:18.870Z,8.10
2019-02-23T00:32:23.644Z,8.00
2019-02-23T00:33:28.138Z,8.00
2019-02-23T00:34:32.694Z,8.00
2019-02-23T00:35:37.150Z,8.00
2019-02-23T00:36:41.686Z,8.00
2019-02-23T00:37:46.172Z,8.00
2019-02-23T00:38:50.654Z,7.90
2019-02-23T00:39:56.655Z,7.90
2019-02-23T00:41:01.178Z,7.90
2019-02-23T00:42:05.752Z,7.90
2019-02-23T00:43:12.308Z,7.80
2019-02-23T00:44:16.783Z,7.80
2019-02-23T00:45:21.283Z,7.80
2019-02-23T00:46:25.745Z,7.80
2019-02-23T00:47:30.223Z,7.80
2019-02-23T00:48:37.830Z,7.70
2019-02-23T00:49:42.324Z,7.70
2019-02-23T00:50:48.835Z,7.70
2019-02-23T00:51:53.283Z,7.70
2019-02-23T00:52:59.875Z,7.70
2019-02-23T00:54:04.589Z,7.70
2019-02-23T00:55:09.311Z,7.70
2019-02-23T00:56:13.794Z,7.70
2019-02-23T00:57:18.258Z,7.60
2019-02-23T00:58:22.724Z,7.60
2019-02-23T00:59:27.207Z,7.60
2019-02-23T01:00:31.686Z,7.60
2019-02-23T01:01:36.293Z,7.50
2019-02-23T01:02:40.894Z,7.50
2019-02-23T01:03:45.431Z,7.50
2019-02-23T01:04:49.923Z,7.50
2019-02-23T01:05:54.396Z,7.50
2019-02-23T01:06:58.860Z,7.50
2019-02-23T01:08:04.077Z,7.50
2019-02-23T01:09:08.585Z,7.50
2019-02-23T01:10:13.050Z,7.50
2019-02-23T01:11:20.690Z,7.40
2019-02-23T01:12:25.679Z,7.40
2019-02-23T01:13:30.320Z,7.40
2019-02-23T01:14:34.945Z,7.40
2019-02-23T01:15:39.422Z,7.40
2019-02-23T01:16:43.969Z,7.40
2019-02-23T01:17:49.084Z,7.40
2019-02-23T01:18:53.783Z,7.40
2019-02-23T01:19:58.435Z,7.40
2019-02-23T01:21:04.429Z,7.40
2019-02-23T01:22:09.049Z,7.40
2019-02-23T01:23:13.601Z,7.40
2019-02-23T01:24:18.211Z,7.40
2019-02-23T01:25:23.860Z,7.30
2019-02-23T01:26:28.338Z,7.30
2019-02-23T01:27:32.918Z,7.30
2019-02-23T01:28:37.462Z,7.30
2019-02-23T01:29:42.766Z,7.30
2019-02-23T01:30:47.221Z,7.30
2019-02-23T01:31:53.221Z,7.30
2019-02-23T01:32:57.756Z,7.30
2019-02-23T01:34:02.232Z,7.30
2019-02-23T01:35:06.904Z,7.30
2019-02-23T01:36:11.398Z,7.30
2019-02-23T01:37:15.947Z,7.30
2019-02-23T01:38:21.429Z,7.20
2019-02-23T01:39:25.887Z,7.20
2019-02-23T01:40:30.413Z,7.20
2019-02-23T01:41:35.805Z,7.20
2019-02-23T01:42:41.847Z,7.20
2019-02-23T01:43:46.423Z,7.20
2019-02-23T01:44:50.903Z,7.20
2019-02-23T01:45:55.387Z,7.20
2019-02-23T01:46:59.835Z,7.10
2019-02-23T01:48:04.393Z,7.10
2019-02-23T01:49:10.406Z,7.10
2019-02-23T01:50:14.951Z,7.10
2019-02-23T01:51:19.693Z,7.10
2019-02-23T01:52:24.230Z,7.10
2019-02-23T01:53:29.496Z,7.00
2019-02-23T01:54:33.974Z,7.00
2019-02-23T01:55:38.441Z,7.00
2019-02-23T01:56:42.921Z,7.00
2019-02-23T01:57:47.517Z,7.00
2019-02-23T01:58:51.998Z,7.00
2019-02-23T01:59:56.463Z,7.00
2019-02-23T02:01:01.290Z,7.00
2019-02-23T02:02:05.738Z,7.00
2019-02-23T02:03:10.211Z,6.90
2019-02-23T02:04:15.738Z,6.90
2019-02-23T02:05:20.448Z,6.90
2019-02-23T02:06:25.041Z,6.90
2019-02-23T02:07:29.510Z,6.90
2019-02-23T02:08:34.611Z,6.90
2019-02-23T02:09:39.149Z,6.80
2019-02-23T02:10:43.854Z,6.80
2019-02-23T02:11:48.337Z,6.80
2019-02-23T02:12:52.877Z,6.80
2019-02-23T02:13:57.430Z,6.80
2019-02-23T02:15:01.908Z,6.80
2019-02-23T02:16:10.997Z,6.80
2019-02-23T02:17:15.564Z,6.80
2019-02-23T02:18:20.018Z,6.70
2019-02-23T02:19:24.482Z,6.70
2019-02-23T02:20:30.490Z,6.70
2019-02-23T02:21:35.266Z,6.70
2019-02-23T02:22:39.745Z,6.70
2019-02-23T02:23:44.212Z,6.70
2019-02-23T02:24:48.666Z,6.70
2019-02-23T02:25:53.144Z,6.60
2019-02-23T02:26:57.708Z,6.60
2019-02-23T02:28:02.342Z,6.60
2019-02-23T02:29:08.428Z,6.60
2019-02-23T02:30:13.974Z,6.60
2019-02-23T02:31:20.753Z,6.60
2019-02-23T02:32:26.869Z,6.60
2019-02-23T02:33:31.571Z,6.50
2019-02-23T02:34:36.039Z,6.50
2019-02-23T02:35:41.502Z,6.50
2019-02-23T02:36:45.943Z,6.50
2019-02-23T02:37:50.414Z,6.50
2019-02-23T02:38:54.879Z,6.50
2019-02-23T02:39:59.334Z,6.50
2019-02-23T02:41:03.795Z,6.50
2019-02-23T02:42:08.314Z,6.50
2019-02-23T02:43:12.774Z,6.50
2019-02-23T02:44:17.252Z,6.50
2019-02-23T02:45:21.785Z,6.40
2019-02-23T02:46:26.246Z,6.40
2019-02-23T02:47:30.701Z,6.40
2019-02-23T02:48:36.812Z,6.40
2019-02-23T02:49:42.914Z,6.40
2019-02-23T02:50:47.376Z,6.40
2019-02-23T02:51:51.867Z,6.40
2019-02-23T02:52:56.391Z,6.40
2019-02-23T02:54:00.931Z,6.40
2019-02-23T02:55:07.555Z,6.40
2019-02-23T02:56:12.092Z,6.30
2019-02-23T02:57:16.627Z,6.30
2019-02-23T02:58:21.403Z,6.30
2019-02-23T02:59:25.937Z,6.30
2019-02-23T03:00:30.423Z,6.30
2019-02-23T03:01:34.893Z,6.20
2019-02-23T03:02:39.346Z,6.20
2019-02-23T03:03:44.077Z,6.20
2019-02-23T03:04:48.554Z,6.20
2019-02-23T03:05:53.016Z,6.20
2019-02-23T03:06:57.490Z,6.20
2019-02-23T03:08:01.971Z,6.20
2019-02-23T03:09:08.580Z,6.10
2019-02-23T03:10:13.037Z,6.10
2019-02-23T03:11:17.491Z,6.10
2019-02-23T03:12:21.976Z,6.10
2019-02-23T03:13:26.434Z,6.10
2019-02-23T03:14:30.906Z,6.00
2019-02-23T03:15:35.387Z,6.00
2019-02-23T03:16:39.876Z,6.00
2019-02-23T03:17:44.361Z,6.00
2019-02-23T03:18:48.829Z,6.00
2019-02-23T03:19:53.301Z,6.00
2019-02-23T03:20:57.920Z,5.90
2019-02-23T03:22:02.468Z,5.90
2019-02-23T03:23:06.944Z,5.90
2019-02-23T03:24:11.442Z,5.90
2019-02-23T03:25:15.887Z,5.90
2019-02-23T03:26:20.416Z,5.90
2019-02-23T03:27:24.892Z,5.90
2019-02-23T03:28:29.393Z,5.80
2019-02-23T03:29:35.387Z,5.80
2019-02-23T03:30:39.873Z,5.80
2019-02-23T03:31:44.336Z,5.80
2019-02-23T03:32:48.799Z,5.80
2019-02-23T03:33:53.290Z,5.80
2019-02-23T03:34:58.017Z,5.80
2019-02-23T03:36:02.494Z,5.80
2019-02-23T03:37:06.966Z,5.70
2019-02-23T03:38:11.451Z,5.70
2019-02-23T03:39:16.286Z,5.70
2019-02-23T03:40:20.746Z,5.70
2019-02-23T03:41:25.227Z,5.70
2019-02-23T03:42:29.683Z,5.70
2019-02-23T03:43:34.226Z,5.70
2019-02-23T03:44:38.717Z,5.60
2019-02-23T03:45:43.202Z,5.60
2019-02-23T03:46:50.009Z,5.60
2019-02-23T03:47:54.485Z,5.60
2019-02-23T03:49:01.027Z,5.60
2019-02-23T03:50:07.168Z,5.60
2019-02-23T03:51:11.637Z,5.60
2019-02-23T03:52:16.098Z,5.60
2019-02-23T03:53:20.576Z,5.60
2019-02-23T03:54:25.108Z,5.60
2019-02-23T03:55:29.843Z,5.60
2019-02-23T03:56:34.565Z,5.50
2019-02-23T03:57:39.153Z,5.50
2019-02-23T03:58:43.695Z,5.50
2019-02-23T03:59:48.156Z,5.50
2019-02-23T04:00:52.703Z,5.50
2019-02-23T04:01:57.219Z,5.50
2019-02-23T04:03:01.694Z,5.50
2019-02-23T04:04:06.160Z,5.50
2019-02-23T04:05:10.759Z,5.50
2019-02-23T04:06:15.231Z,5.50
2019-02-23T04:07:19.707Z,5.50
2019-02-23T04:08:24.179Z,5.50
2019-02-23T04:09:29.660Z,5.50
2019-02-23T04:10:34.187Z,5.50
2019-02-23T04:11:38.649Z,5.50
2019-02-23T04:12:43.114Z,5.50
2019-02-23T04:13:47.985Z,5.50
2019-02-23T04:14:52.557Z,5.50
2019-02-23T04:15:57.277Z,5.50
2019-02-23T04:17:01.809Z,5.50
2019-02-23T04:18:06.350Z,5.50
2019-02-23T04:19:10.845Z,5.50
2019-02-23T04:20:15.330Z,5.50
2019-02-23T04:21:19.781Z,5.40
2019-02-23T04:22:24.233Z,5.40
2019-02-23T04:23:28.717Z,5.40
2019-02-23T04:24:33.210Z,5.40
2019-02-23T04:25:37.693Z,5.40
2019-02-23T04:26:42.592Z,5.40
2019-02-23T04:27:47.052Z,5.40
2019-02-23T04:28:51.578Z,5.40
2019-02-23T04:29:56.072Z,5.40
2019-02-23T04:31:00.585Z,5.40
2019-02-23T04:32:05.398Z,5.40
2019-02-23T04:33:09.867Z,5.30
2019-02-23T04:34:14.344Z,5.30
2019-02-23T04:35:18.804Z,5.30
2019-02-23T04:36:23.299Z,5.30
2019-02-23T04:37:27.785Z,5.30
2019-02-23T04:38:32.229Z,5.30
2019-02-23T04:39:36.702Z,5.30
2019-02-23T04:40:41.804Z,5.30
2019-02-23T04:41:46.341Z,5.30
2019-02-23T04:42:50.800Z,5.30
2019-02-23T04:43:55.260Z,5.20
2019-02-23T04:44:59.763Z,5.20
2019-02-23T04:46:04.277Z,5.20
2019-02-23T04:47:08.746Z,5.20
2019-02-23T04:48:13.240Z,5.20
2019-02-23T04:49:17.711Z,5.20
2019-02-23T04:50:22.172Z,5.20
2019-02-23T04:51:26.924Z,5.20
2019-02-23T04:52:31.374Z,5.20
2019-02-23T04:53:35.848Z,5.20
2019-02-23T04:54:40.326Z,5.20
2019-02-23T04:55:44.787Z,5.20
2019-02-23T04:56:49.275Z,5.20
2019-02-23T04:57:54.700Z,5.20
2019-02-23T04:58:59.166Z,5.20
2019-02-23T05:00:04.794Z,5.20
2019-02-23T05:01:09.273Z,5.10
2019-02-23T05:02:13.749Z,5.10
2019-02-23T05:03:18.240Z,5.10
2019-02-23T05:04:22.705Z,5.10
2019-02-23T05:05:29.221Z,5.10
2019-02-23T05:06:33.696Z,5.10
2019-02-23T05:07:38.355Z,5.10
2019-02-23T05:08:42.865Z,5.10
2019-02-23T05:09:47.313Z,5.00
2019-02-23T05:10:51.800Z,5.00
2019-02-23T05:11:56.265Z,5.00
2019-02-23T05:13:00.726Z,5.00
2019-02-23T05:14:05.241Z,5.00
2019-02-23T05:15:10.842Z,5.00
2019-02-23T05:16:15.321Z,5.00
2019-02-23T05:17:19.791Z,5.00
2019-02-23T05:18:24.255Z,5.00
2019-02-23T05:19:28.748Z,5.00
2019-02-23T05:20:33.228Z,5.00
2019-02-23T05:21:37.971Z,5.00
2019-02-23T05:22:42.440Z,4.90
2019-02-23T05:23:46.919Z,4.90
2019-02-23T05:24:53.489Z,4.90
2019-02-23T05:25:58.138Z,4.90
2019-02-23T05:27:02.605Z,4.90
2019-02-23T05:28:07.080Z,4.90
2019-02-23T05:29:11.564Z,4.90
2019-02-23T05:30:17.679Z,4.80
2019-02-23T05:31:22.403Z,4.80
2019-02-23T05:32:26.882Z,4.80
2019-02-23T05:33:31.347Z,4.80
2019-02-23T05:34:35.811Z,4.80
2019-02-23T05:35:40.301Z,4.80
2019-02-23T05:36:44.855Z,4.80
2019-02-23T05:37:49.324Z,4.80
2019-02-23T05:38:53.810Z,4.70
2019-02-23T05:39:58.276Z,4.70
2019-02-23T05:41:02.756Z,4.70
2019-02-23T05:42:07.226Z,4.70
2019-02-23T05:43:12.923Z,4.70
2019-02-23T05:44:17.392Z,4.70
2019-02-23T05:45:23.474Z,4.70
2019-02-23T05:46:27.929Z,4.70
2019-02-23T05:47:32.695Z,4.70
2019-02-23T05:48:37.154Z,4.60
2019-02-23T05:49:41.645Z,4.60
2019-02-23T05:50:46.129Z,4.60
2019-02-23T05:51:50.588Z,4.60
2019-02-23T05:52:55.101Z,4.60
2019-02-23T05:53:59.650Z,4.60
2019-02-23T05:55:04.659Z,4.60
2019-02-23T05:56:12.378Z,4.60
2019-02-23T05:57:17.143Z,4.50
2019-02-23T05:58:21.661Z,4.50
2019-02-23T05:59:26.121Z,4.50
2019-02-23T06:00:30.610Z,4.50
2019-02-23T06:01:35.089Z,4.50
2019-02-23T06:02:39.634Z,4.50
2019-02-23T06:03:44.229Z,4.50
2019-02-23T06:04:48.710Z,4.50
2019-02-23T06:05:53.163Z,4.40
2019-02-23T06:06:57.715Z,4.40
2019-02-23T06:08:02.196Z,4.40
2019-02-23T06:09:06.750Z,4.40
2019-02-23T06:10:11.297Z,4.40
2019-02-23T06:11:15.765Z,4.40
2019-02-23T06:12:20.322Z,4.40
2019-02-23T06:13:24.797Z,4.40
2019-02-23T06:14:29.265Z,4.40
2019-02-23T06:15:33.734Z,4.40
2019-02-23T06:16:38.300Z,4.40
2019-02-23T06:17:42.784Z,4.40
2019-02-23T06:18:47.230Z,4.40
2019-02-23T06:19:51.699Z,4.40
2019-02-23T06:20:56.168Z,4.40
2019-02-23T06:22:00.643Z,4.40
2019-02-23T06:23:07.182Z,4.30
2019-02-23T06:24:11.649Z,4.30
2019-02-23T06:25:17.030Z,4.30
2019-02-23T06:26:21.506Z,4.30
2019-02-23T06:27:25.996Z,4.30
2019-02-23T06:28:30.472Z,4.30
2019-02-23T06:29:35.525Z,4.30
2019-02-23T06:30:40.012Z,4.30
2019-02-23T06:31:44.500Z,4.30
2019-02-23T06:32:49.032Z,4.30
2019-02-23T06:33:53.506Z,4.30
2019-02-23T06:34:57.973Z,4.30
2019-02-23T06:36:03.448Z,4.30
2019-02-23T06:37:09.508Z,4.20
2019-02-23T06:38:13.957Z,4.20
2019-02-23T06:39:19.199Z,4.20
2019-02-23T06:40:23.676Z,4.20
2019-02-23T06:41:28.707Z,4.20
2019-02-23T06:42:33.177Z,4.20
2019-02-23T06:43:37.647Z,4.20
2019-02-23T06:44:42.107Z,4.20
2019-02-23T06:45:46.592Z,4.20
2019-02-23T06:46:51.057Z,4.20
2019-02-23T06:47:55.505Z,4.20
2019-02-23T06:49:00.059Z,4.20
2019-02-23T06:50:05.281Z,4.20
2019-02-23T06:51:09.769Z,4.20
2019-02-23T06:52:14.549Z,4.20
2019-02-23T06:53:19.087Z,4.20
2019-02-23T06:54:23.545Z,4.20
2019-02-23T06:55:28.018Z,4.20
2019-02-23T06:56:32.488Z,4.20
2019-02-23T06:57:36.945Z,4.20
2019-02-23T06:58:41.463Z,4.20
2019-02-23T06:59:47.346Z,4.20
2019-02-23T07:00:54.204Z,4.20
2019-02-23T07:01:59.440Z,4.20
2019-02-23T07:03:04.810Z,4.20
2019-02-23T07:04:09.275Z,4.20
2019-02-23T07:05:13.817Z,4.20
2019-02-23T07:06:19.248Z,4.20
2019-02-23T07:07:23.731Z,4.20
2019-02-23T07:08:28.181Z,4.20
2019-02-23T07:09:32.711Z,4.10
2019-02-23T07:10:37.192Z,4.20
2019-02-23T07:11:41.695Z,4.20
2019-02-23T07:12:46.181Z,4.10
2019-02-23T07:13:50.662Z,4.10
2019-02-23T07:14:55.209Z,4.10
2019-02-23T07:15:59.744Z,4.10
2019-02-23T07:17:05.134Z,4.10
2019-02-23T07:18:09.748Z,4.10
2019-02-23T07:19:14.210Z,4.10
2019-02-23T07:20:18.722Z,4.10
2019-02-23T07:21:23.194Z,4.10
2019-02-23T07:22:27.645Z,4.20
2019-02-23T07:23:32.122Z,4.20
2019-02-23T07:24:36.608Z,4.20
2019-02-23T07:25:41.070Z,4.20
2019-02-23T07:26:45.533Z,4.20
2019-02-23T07:27:50.007Z,4.20
2019-02-23T07:28:54.493Z,4.20
2019-02-23T07:29:58.964Z,4.20
2019-02-23T07:31:03.418Z,4.20
2019-02-23T07:32:07.896Z,4.20
2019-02-23T07:33:12.372Z,4.20
2019-02-23T07:34:16.848Z,4.20
2019-02-23T07:35:21.322Z,4.20
2019-02-23T07:36:25.797Z,4.20
2019-02-23T07:37:30.255Z,4.20
2019-02-23T07:38:35.566Z,4.30
2019-02-23T07:39:40.212Z,4.30
2019-02-23T07:40:44.673Z,4.30
2019-02-23T07:41:49.177Z,4.30
2019-02-23T07:42:53.663Z,4.30
2019-02-23T07:44:00.649Z,4.30
2019-02-23T07:45:06.761Z,4.30
2019-02-23T07:46:12.350Z,4.30
2019-02-23T07:47:16.932Z,4.30
2019-02-23T07:48:21.378Z,4.30
2019-02-23T07:49:26.242Z,4.30
2019-02-23T07:50:32.441Z,4.30
2019-02-23T07:51:36.951Z,4.30
2019-02-23T07:52:41.488Z,4.30
2019-02-23T07:53:45.961Z,4.40
2019-02-23T07:54:50.494Z,4.40
2019-02-23T07:55:54.990Z,4.40
2019-02-23T07:56:59.454Z,4.40
2019-02-23T07:58:04.013Z,4.40
2019-02-23T07:59:08.475Z,4.40
2019-02-23T08:00:15.027Z,4.40
2019-02-23T08:01:19.572Z,4.40
2019-02-23T08:02:25.869Z,4.40
2019-02-23T08:03:30.529Z,4.40
2019-02-23T08:04:35.984Z,4.40
2019-02-23T08:05:40.482Z,4.40
2019-02-23T08:06:44.975Z,4.40
2019-02-23T08:07:49.506Z,4.40
2019-02-23T08:08:54.131Z,4.40
2019-02-23T08:09:58.585Z,4.50
2019-02-23T08:11:03.067Z,4.50
2019-02-23T08:12:07.568Z,4.50
2019-02-23T08:13:12.093Z,4.50
2019-02-23T08:14:18.202Z,4.50
2019-02-23T08:15:22.721Z,4.50
2019-02-23T08:16:27.311Z,4.50
2019-02-23T08:17:31.869Z,4.50
2019-02-23T08:18:36.518Z,4.50
2019-02-23T08:19:40.996Z,4.50
2019-02-23T08:20:45.467Z,4.60
2019-02-23T08:21:49.950Z,4.60
2019-02-23T08:22:54.585Z,4.60
2019-02-23T08:23:59.100Z,4.60
2019-02-23T08:25:04.553Z,4.60
2019-02-23T08:26:09.175Z,4.70
2019-02-23T08:27:13.733Z,4.70
2019-02-23T08:28:18.262Z,4.70
2019-02-23T08:29:23.138Z,4.70
2019-02-23T08:30:27.987Z,4.70
2019-02-23T08:31:32.957Z,4.80
2019-02-23T08:32:37.491Z,4.80
2019-02-23T08:33:42.449Z,4.80
2019-02-23T08:34:46.993Z,4.90
2019-02-23T08:35:51.643Z,4.90
2019-02-23T08:36:56.230Z,4.90
2019-02-23T08:38:00.780Z,4.90
2019-02-23T08:39:05.840Z,5.00
2019-02-23T08:40:17.828Z,5.00
2019-02-23T08:41:22.421Z,5.00
2019-02-23T08:42:27.259Z,5.00
2019-02-23T08:43:31.830Z,5.10
2019-02-23T08:44:36.369Z,5.10
2019-02-23T08:45:40.906Z,5.10
2019-02-23T08:46:45.402Z,5.10
2019-02-23T08:47:49.956Z,5.10
2019-02-23T08:48:54.539Z,5.10
2019-02-23T08:49:59.030Z,5.10
2019-02-23T08:51:03.598Z,5.10
2019-02-23T08:52:08.695Z,5.20
2019-02-23T08:53:14.724Z,5.20
2019-02-23T08:54:19.211Z,5.20
2019-02-23T08:55:23.770Z,5.20
2019-02-23T08:56:30.847Z,5.30
2019-02-23T08:57:34.777Z,5.30
2019-02-23T08:58:39.288Z,5.30
2019-02-23T08:59:43.761Z,5.40
2019-02-23T09:00:48.222Z,5.40
2019-02-23T09:01:54.498Z,5.50
2019-02-23T09:03:00.191Z,5.50
2019-02-23T09:04:04.955Z,5.60
2019-02-23T09:05:10.933Z,5.70
2019-02-23T09:06:15.480Z,5.80
2019-02-23T09:07:23.332Z,5.90
2019-02-23T09:08:29.302Z,6.00
2019-02-23T09:09:33.866Z,6.20
2019-02-23T09:10:38.421Z,6.40
2019-02-23T09:11:42.930Z,6.50
2019-02-23T09:12:47.391Z,6.70
2019-02-23T09:13:51.875Z,6.80
2019-02-23T09:14:57.081Z,6.90
2019-02-23T09:16:01.656Z,7.10
2019-02-23T09:17:06.271Z,7.10
2019-02-23T09:18:10.850Z,7.20
2019-02-23T09:19:16.966Z,7.30
2019-02-23T09:20:29.196Z,7.40
2019-02-23T09:21:30.020Z,7.40
2019-02-23T09:22:34.501Z,7.40
2019-02-23T09:23:39.042Z,7.50
2019-02-23T09:24:44.128Z,7.50
2019-02-23T09:25:48.599Z,7.50
2019-02-23T09:26:53.128Z,7.50
2019-02-23T09:27:57.599Z,7.50
2019-02-23T09:29:02.127Z,7.50
2019-02-23T09:30:11.592Z,7.50
2019-02-23T09:31:17.053Z,7.50
2019-02-23T09:32:21.583Z,7.50
2019-02-23T09:33:26.758Z,7.50
2019-02-23T09:34:31.268Z,7.50
2019-02-23T09:35:37.274Z,7.50
2019-02-23T09:36:47.249Z,7.60
2019-02-23T09:37:48.981Z,7.60
2019-02-23T09:38:53.479Z,7.60
2019-02-23T09:39:58.922Z,7.70
2019-02-23T09:41:03.414Z,7.70
2019-02-23T09:42:08.656Z,7.80
2019-02-23T09:43:13.314Z,7.90
2019-02-23T09:44:17.904Z,7.90
2019-02-23T09:45:22.421Z,8.00
2019-02-23T09:46:27.021Z,8.10
2019-02-23T09:47:32.030Z,8.30
2019-02-23T09:48:37.679Z,8.40
2019-02-23T09:49:42.212Z,8.60
2019-02-23T09:50:46.705Z,8.80
2019-02-23T09:51:52.500Z,9.10
2019-02-23T09:52:57.370Z,9.40
2019-02-23T09:54:01.889Z,9.70
2019-02-23T09:55:08.103Z,10.00
2019-02-23T09:56:12.758Z,10.30
2019-02-23T09:57:18.023Z,10.70
2019-02-23T09:58:22.673Z,11.00
2019-02-23T09:59:27.209Z,11.30
2019-02-23T10:00:31.758Z,11.60
2019-02-23T10:01:37.988Z,11.90
2019-02-23T10:02:43.457Z,12.20
2019-02-23T10:03:48.201Z,12.50
2019-02-23T10:04:52.659Z,12.70
2019-02-23T10:05:57.127Z,13.00
2019-02-23T10:07:01.609Z,13.30
2019-02-23T10:08:06.286Z,13.50
2019-02-23T10:09:11.580Z,13.70
2019-02-23T10:10:16.167Z,14.00
2019-02-23T10:11:21.501Z,14.20
2019-02-23T10:12:26.092Z,14.50
2019-02-23T10:13:30.564Z,14.70
2019-02-23T10:14:35.043Z,15.00
2019-02-23T10:15:39.597Z,15.20
2019-02-23T10:16:44.135Z,15.50
2019-02-23T10:17:50.348Z,15.80
2019-02-23T10:18:54.838Z,16.10
2019-02-23T10:20:01.223Z,16.30
2019-02-23T10:21:05.699Z,16.60
2019-02-23T10:22:11.099Z,16.80
2019-02-23T10:23:22.179Z,17.10
2019-02-23T10:24:21.839Z,17.30
2019-02-23T10:25:26.388Z,17.60
2019-02-23T10:26:32.419Z,17.80
2019-02-23T10:27:36.923Z,18.00
2019-02-23T10:28:41.396Z,18.20
2019-02-23T10:29:47.459Z,18.50
2019-02-23T10:30:51.985Z,18.70
2019-02-23T10:31:56.560Z,18.90
2019-02-23T10:33:01.199Z,19.10
2019-02-23T10:34:05.772Z,19.30
2019-02-23T10:35:12.038Z,19.40
2019-02-23T10:36:16.611Z,19.60
2019-02-23T10:37:21.170Z,19.80
2019-02-23T10:38:25.642Z,20.00
2019-02-23T10:39:30.141Z,20.20
2019-02-23T10:40:34.648Z,20.40
2019-02-23T10:41:39.175Z,20.60
2019-02-23T10:42:43.677Z,20.80
2019-02-23T10:43:48.138Z,21.00
2019-02-23T10:44:52.812Z,21.20
2019-02-23T10:45:57.424Z,21.40
2019-02-23T10:47:01.922Z,21.60
2019-02-23T10:48:06.473Z,21.80
2019-02-23T10:49:10.947Z,22.00
2019-02-23T10:50:15.868Z,22.20
2019-02-23T10:51:20.413Z,22.40
2019-02-23T10:52:25.192Z,22.60
2019-02-23T10:53:32.750Z,22.70
2019-02-23T10:54:35.855Z,22.90
2019-02-23T10:55:40.341Z,23.10
2019-02-23T10:56:44.850Z,23.20
2019-02-23T10:57:49.315Z,23.40
2019-02-23T10:58:53.777Z,23.50
2019-02-23T11:00:00.383Z,23.60
2019-02-23T11:01:07.010Z,23.70
2019-02-23T11:02:12.040Z,23.80
2019-02-23T11:03:16.764Z,23.90
2019-02-23T11:04:23.767Z,23.90
2019-02-23T11:05:28.294Z,24.10
2019-02-23T11:06:32.805Z,24.20
2019-02-23T11:07:37.355Z,24.20
2019-02-23T11:08:41.956Z,24.30
2019-02-23T11:09:46.611Z,24.40
2019-02-23T11:10:51.078Z,24.50
2019-02-23T11:11:55.844Z,24.50
2019-02-23T11:13:00.393Z,24.60
2019-02-23T11:14:05.083Z,24.70
2019-02-23T11:15:14.252Z,24.80
2019-02-23T11:16:19.364Z,24.80
2019-02-23T11:17:25.399Z,24.80
2019-02-23T11:18:30.005Z,24.90
2019-02-23T11:19:34.705Z,25.00
2019-02-23T11:20:39.317Z,25.00
2019-02-23T11:21:43.790Z,25.00
2019-02-23T11:22:50.439Z,25.00
2019-02-23T11:23:54.971Z,25.10
2019-02-23T11:24:59.453Z,25.10
2019-02-23T11:26:04.204Z,25.20
2019-02-23T11:27:09.051Z,25.20
2019-02-23T11:28:13.602Z,25.30
2019-02-23T11:29:18.104Z,25.40
2019-02-23T11:30:22.587Z,25.40
2019-02-23T11:31:27.153Z,25.50
2019-02-23T11:32:31.629Z,25.50
2019-02-23T11:33:36.223Z,25.60
2019-02-23T11:34:40.779Z,25.70
2019-02-23T11:35:45.381Z,25.70
2019-02-23T11:36:49.887Z,25.80
2019-02-23T11:37:54.382Z,25.90
2019-02-23T11:38:58.999Z,25.90
2019-02-23T11:40:03.858Z,25.90
2019-02-23T11:41:08.410Z,26.00
2019-02-23T11:42:12.986Z,26.00
2019-02-23T11:43:17.560Z,26.10
2019-02-23T11:44:23.461Z,26.10
2019-02-23T11:45:28.019Z,26.10
2019-02-23T11:46:32.523Z,26.20
2019-02-23T11:47:37.004Z,26.30
2019-02-23T11:48:41.490Z,26.30
2019-02-23T11:49:45.968Z,26.40
2019-02-23T11:50:50.533Z,26.40
2019-02-23T11:51:55.028Z,26.50
2019-02-23T11:52:59.542Z,26.50
2019-02-23T11:54:04.092Z,26.60
2019-02-23T11:55:08.930Z,26.60
2019-02-23T11:56:13.457Z,26.60
2019-02-23T11:57:19.132Z,26.70
2019-02-23T11:58:23.700Z,26.70
2019-02-23T11:59:28.548Z,26.70
2019-02-23T12:00:33.082Z,26.80
2019-02-23T12:01:37.562Z,26.80
2019-02-23T12:02:52.096Z,26.80
2019-02-23T12:03:48.359Z,26.80
2019-02-23T12:04:52.860Z,26.70
2019-02-23T12:05:57.336Z,26.70
2019-02-23T12:07:01.818Z,26.70
2019-02-23T12:08:06.370Z,26.60
2019-02-23T12:09:10.989Z,26.60
2019-02-23T12:10:16.307Z,26.60
2019-02-23T12:11:20.794Z,26.60
2019-02-23T12:12:25.303Z,26.60
2019-02-23T12:13:29.827Z,26.60
2019-02-23T12:14:34.490Z,26.60
2019-02-23T12:15:39.024Z,26.60
2019-02-23T12:16:43.635Z,26.60
2019-02-23T12:17:48.117Z,26.70
2019-02-23T12:18:53.633Z,26.70
2019-02-23T12:19:58.217Z,26.80
2019-02-23T12:21:02.740Z,26.80
2019-02-23T12:22:12.236Z,26.90
2019-02-23T12:23:13.599Z,26.90
2019-02-23T12:24:18.161Z,27.00
2019-02-23T12:25:23.010Z,27.10
2019-02-23T12:26:27.543Z,27.10
2019-02-23T12:27:32.074Z,27.20
2019-02-23T12:28:36.597Z,27.30
2019-02-23T12:29:41.180Z,27.40
2019-02-23T12:30:45.738Z,27.50
2019-02-23T12:31:50.361Z,27.50
2019-02-23T12:32:54.985Z,27.60
2019-02-23T12:33:59.574Z,27.70
2019-02-23T12:35:05.003Z,27.80
2019-02-23T12:36:09.828Z,27.90
2019-02-23T12:37:14.389Z,28.00
2019-02-23T12:38:18.889Z,28.10
2019-02-23T12:39:23.439Z,28.20
2019-02-23T12:40:27.948Z,28.20
2019-02-23T12:41:32.578Z,28.30
2019-02-23T12:42:37.125Z,28.40
2019-02-23T12:43:41.627Z,28.40
2019-02-23T12:44:46.116Z,28.50
2019-02-23T12:45:50.642Z,28.50
2019-02-23T12:46:55.162Z,28.50
2019-02-23T12:47:59.892Z,28.50
2019-02-23T12:49:04.458Z,28.60
2019-02-23T12:50:11.213Z,28.60
2019-02-23T12:51:17.302Z,28.50
2019-02-23T12:52:22.121Z,28.60
2019-02-23T12:53:26.619Z,28.60
2019-02-23T12:54:31.103Z,28.60
2019-02-23T12:55:37.212Z,28.60
2019-02-23T12:56:41.732Z,28.60
2019-02-23T12:57:46.345Z,28.60
2019-02-23T12:58:51.113Z,28.60
2019-02-23T12:59:55.585Z,28.60
2019-02-23T13:01:00.096Z,28.60
2019-02-23T13:02:04.627Z,28.70
2019-02-23T13:03:09.204Z,28.70
2019-02-23T13:04:14.034Z,28.60
2019-02-23T13:05:20.022Z,28.60
2019-02-23T13:06:24.580Z,28.60
2019-02-23T13:07:29.385Z,28.60
2019-02-23T13:09:12.105Z,28.60
2019-02-23T13:10:16.887Z,28.50
2019-02-23T13:11:21.373Z,28.50
2019-02-23T13:12:34.944Z,28.50
2019-02-23T13:13:45.468Z,28.50
2019-02-23T13:15:10.905Z,28.50
2019-02-23T13:16:18.544Z,28.50
2019-02-23T13:17:28.757Z,28.50
2019-02-23T13:18:56.043Z,28.50
2019-02-23T13:20:23.277Z,28.50
2019-02-23T13:21:45.607Z,28.50
2019-02-23T13:22:55.755Z,28.50
2019-02-23T13:24:28.337Z,28.50
2019-02-23T13:25:41.327Z,28.40
2019-02-23T13:27:06.008Z,28.40
2019-02-23T13:28:25.160Z,28.40
2019-02-23T13:29:35.484Z,28.30
2019-02-23T13:30:51.916Z,28.30
2019-02-23T13:32:22.020Z,28.30
2019-02-23T13:33:36.215Z,28.20
2019-02-23T13:34:55.622Z,28.30
2019-02-23T13:36:33.702Z,28.20
2019-02-23T13:37:45.136Z,28.20
2019-02-23T13:39:16.762Z,28.30
2019-02-23T13:40:35.961Z,28.30
2019-02-23T13:41:58.701Z,28.20
2019-02-23T13:43:26.111Z,28.20
2019-02-23T13:44:42.625Z,28.20
2019-02-23T13:46:01.568Z,28.10
2019-02-23T13:47:15.218Z,28.10
2019-02-23T13:48:22.981Z,28.10
2019-02-23T13:49:52.049Z,28.00
2019-02-23T13:51:04.165Z,28.00
2019-02-23T13:52:18.783Z,28.00
2019-02-23T13:53:42.888Z,27.90
2019-02-23T13:55:17.771Z,27.90
2019-02-23T13:56:34.496Z,27.90
2019-02-23T13:58:00.039Z,28.00
2019-02-23T13:59:10.182Z,28.00
2019-02-23T14:00:20.562Z,28.00
2019-02-23T14:01:31.657Z,28.00
2019-02-23T14:02:44.541Z,28.00
2019-02-23T14:04:00.499Z,28.00
2019-02-23T14:05:25.814Z,27.90
2019-02-23T14:06:51.395Z,27.90
2019-02-23T14:08:16.880Z,27.90
2019-02-23T14:09:36.639Z,27.80
2019-02-23T14:11:05.385Z,27.80
2019-02-23T14:12:27.759Z,27.80
2019-02-23T14:13:50.490Z,27.70
2019-02-23T14:15:12.477Z,27.70
2019-02-23T14:16:52.528Z,27.60
2019-02-23T14:18:13.196Z,27.50
2019-02-23T14:19:20.797Z,27.40
2019-02-23T14:20:43.724Z,27.30
2019-02-23T14:22:09.595Z,27.10
2019-02-23T14:23:36.514Z,27.00
2019-02-23T14:25:01.024Z,26.80
2019-02-23T14:26:35.841Z,26.50
2019-02-23T14:28:10.767Z,26.30
2019-02-23T14:29:18.361Z,26.00
2019-02-23T14:30:48.685Z,25.70